CheckWX is a tool to help pilots better visualize weather data.  It is not intended as a substitute for an official pre-flight weather briefing.

10:42:26 UTC

LGIR TAF
Heraklion International Nikos Kazantzakis Airport
Heraklion, Greece
TAF LGIR 031100Z 0312/0412 09013KT 9999 FEW020 SCT025 BKN090 BECMG 0321/0323 17012KT

Apr-3@
12:00 UTC

Apr-3 @ 12:00 UTC

Apr-3@
21:00 UTC

Apr-3 @ 21:00 UTC

TAF LGIR 031100Z 0312/0412 09013KT 9999 FEW020 SCT025 BKN090

Expired

Wind
  • 090° at 13 KTS
Cloud Levels
  • Few at 2,000' AGL
  • Scattered at 2,500' AGL
  • Broken at 9,000' AGL

Apr-3@
21:00 UTC

Apr-3 @ 21:00 UTC

Apr-4@
12:00 UTC

Apr-4 @ 12:00 UTC

BECMG 0321/0323 17012KT

Becoming

Becoming Conditions expected by Fri, Apr 3, 2020 @ 23:00 UTC

Wind
  • 170° at 12 KTS
Cloud Levels
  • Few at 2,000' AGL
  • Scattered at 2,500' AGL
  • Broken at 9,000' AGL